createdAt,value
2022-10-13T00:03:13.361Z,98821.75
2022-10-13T00:08:19.854Z,98830.44
2022-10-13T00:13:21.824Z,98823.03
2022-10-13T00:18:23.650Z,98823.88
2022-10-13T00:23:25.685Z,98819.63
2022-10-13T00:28:27.530Z,98806.34
2022-10-13T00:33:29.530Z,98814.06
2022-10-13T00:38:31.334Z,98815.16
2022-10-13T00:44:00.580Z,98810.91
2022-10-13T00:49:11.855Z,98800.72
2022-10-13T00:54:20.578Z,98809.69
2022-10-13T00:59:27.573Z,98810.91
2022-10-13T01:04:37.365Z,98801.50
2022-10-13T01:09:39.158Z,98802.94
2022-10-13T01:14:50.750Z,98799.28
2022-10-13T01:20:30.325Z,98803.06
2022-10-13T01:25:55.516Z,98791.56
2022-10-13T01:31:15.086Z,98791.78
2022-10-13T01:36:33.115Z,98792.09
2022-10-13T01:41:46.857Z,98786.63
2022-10-13T01:46:51.731Z,98780.47
2022-10-13T01:51:56.333Z,98779.66
2022-10-13T01:56:58.219Z,98781.19
2022-10-13T02:02:19.560Z,98771.00
2022-10-13T02:07:34.631Z,98766.28
2022-10-13T02:12:50.389Z,98767.75
2022-10-13T02:17:53.475Z,98765.31
2022-10-13T02:23:01.351Z,98764.88
2022-10-13T02:28:04.196Z,98760.47
2022-10-13T02:33:11.398Z,98765.81
2022-10-13T02:38:13.486Z,98760.19
2022-10-13T02:43:15.371Z,98753.88
2022-10-13T02:48:17.178Z,98762.94
2022-10-13T02:53:19.026Z,98757.47
2022-10-13T02:58:20.997Z,98756.69
2022-10-13T03:03:22.800Z,98757.34
2022-10-13T03:08:26.139Z,98756.34
2022-10-13T03:13:28.368Z,98746.75
2022-10-13T03:18:35.509Z,98752.84
2022-10-13T03:23:37.329Z,98748.31
2022-10-13T03:28:39.165Z,98750.91
2022-10-13T03:33:41.206Z,98752.97
2022-10-13T03:38:43.271Z,98741.13
2022-10-13T03:43:46.215Z,98743.72
2022-10-13T03:48:48.267Z,98747.84
2022-10-13T03:53:52.017Z,98742.41
2022-10-13T03:58:56.654Z,98750.13
2022-10-13T04:03:59.712Z,98747.03
2022-10-13T04:09:01.574Z,98740.81
2022-10-13T04:14:03.767Z,98737.38
2022-10-13T04:19:05.928Z,98736.97
2022-10-13T04:24:08.674Z,98733.97
2022-10-13T04:29:13.422Z,98732.09
2022-10-13T04:34:15.227Z,98730.53
2022-10-13T04:39:17.035Z,98739.56
2022-10-13T04:44:19.029Z,98738.84
2022-10-13T04:49:20.870Z,98735.41
2022-10-13T04:54:22.718Z,98726.13
2022-10-13T04:59:24.505Z,98721.00
2022-10-13T05:04:26.314Z,98720.78
2022-10-13T05:09:28.153Z,98714.47
2022-10-13T05:14:31.191Z,98718.19
2022-10-13T05:19:35.006Z,98711.34
2022-10-13T05:24:36.834Z,98705.91
2022-10-13T05:29:39.569Z,98700.84
2022-10-13T05:34:41.353Z,98703.84
2022-10-13T05:39:47.040Z,98692.97
2022-10-13T05:44:51.243Z,98692.22
2022-10-13T05:49:53.044Z,98697.16
2022-10-13T05:55:02.339Z,98684.19
2022-10-13T06:00:16.441Z,98690.72
2022-10-13T06:05:21.847Z,98700.59
2022-10-13T06:10:27.630Z,98696.59
2022-10-13T06:15:29.401Z,98701.47
2022-10-13T06:20:31.343Z,98689.06
2022-10-13T06:25:33.160Z,98695.16
2022-10-13T06:30:34.934Z,98695.94
2022-10-13T06:35:36.724Z,98697.44
2022-10-13T06:40:38.595Z,98702.03
2022-10-13T06:45:40.429Z,98704.34
2022-10-13T06:50:43.072Z,98707.06
2022-10-13T06:55:47.090Z,98711.44
2022-10-13T07:00:52.681Z,98719.22
2022-10-13T07:05:54.876Z,98722.81
2022-10-13T07:10:57.156Z,98726.47
2022-10-13T07:15:58.987Z,98726.75
2022-10-13T07:21:01.535Z,98723.72
2022-10-13T07:26:08.016Z,98714.13
2022-10-13T07:31:14.659Z,98713.44
2022-10-13T07:36:16.926Z,98711.66
2022-10-13T07:41:18.727Z,98708.31
2022-10-13T07:46:20.726Z,98715.88
2022-10-13T07:51:23.025Z,98693.63
2022-10-13T07:56:24.887Z,98700.13
2022-10-13T08:01:27.153Z,98690.84
2022-10-13T08:06:29.351Z,98683.84
2022-10-13T08:11:33.014Z,98689.28
2022-10-13T08:16:34.841Z,98681.47
2022-10-13T08:26:59.248Z,98677.59
2022-10-13T08:32:01.304Z,98666.63
2022-10-13T08:37:04.487Z,98658.00
2022-10-13T08:42:22.251Z,98661.31
2022-10-13T08:47:27.463Z,98659.16
2022-10-13T08:52:45.028Z,98651.00
2022-10-13T08:57:46.961Z,98652.16
2022-10-13T09:02:49.779Z,98641.56
2022-10-13T09:13:01.351Z,98633.88
2022-10-13T09:18:12.073Z,98639.25
2022-10-13T09:23:23.159Z,98625.47
2022-10-13T09:28:30.458Z,98616.63
2022-10-13T09:33:37.190Z,98622.31
2022-10-13T09:38:40.978Z,98616.81
2022-10-13T09:43:48.650Z,98612.88
2022-10-13T09:49:31.833Z,98612.06
2022-10-13T09:54:40.449Z,98611.88
2022-10-13T09:59:48.996Z,98615.84
2022-10-13T10:04:53.739Z,98611.94
2022-10-13T10:09:59.098Z,98613.06
2022-10-13T10:15:01.577Z,98601.19
2022-10-13T10:20:33.552Z,98601.59
2022-10-13T10:25:44.811Z,98596.19
2022-10-13T10:30:54.844Z,98590.75
2022-10-13T10:36:16.759Z,98593.59
2022-10-13T10:41:40.855Z,98591.59
2022-10-13T10:46:48.179Z,98581.31
2022-10-13T10:51:50.262Z,98573.09
2022-10-13T10:57:21.285Z,98565.88
2022-10-13T11:02:43.061Z,98558.75
2022-10-13T11:07:45.632Z,98558.44
2022-10-13T11:12:53.549Z,98545.38
2022-10-13T11:17:55.437Z,98538.50
2022-10-13T11:22:58.482Z,98536.44
2022-10-13T11:28:00.331Z,98524.88
2022-10-13T11:33:09.273Z,98511.63
2022-10-13T11:38:35.823Z,98493.22
2022-10-13T11:43:40.766Z,98499.09
2022-10-13T11:49:04.471Z,98493.16
2022-10-13T11:54:33.163Z,98487.59
2022-10-13T11:59:39.381Z,98491.66
2022-10-13T12:04:46.512Z,98493.50
2022-10-13T12:09:51.698Z,98484.84
2022-10-13T12:14:59.906Z,98477.38
2022-10-13T12:20:21.690Z,98476.31
2022-10-13T12:25:26.877Z,98480.03
2022-10-13T12:30:38.280Z,98476.53
2022-10-13T12:35:40.113Z,98485.44
2022-10-13T12:40:42.048Z,98485.97
2022-10-13T12:45:44.494Z,98484.78
2022-10-13T12:50:46.287Z,98484.78
2022-10-13T12:55:50.821Z,98480.13
2022-10-13T13:01:15.737Z,98464.31
2022-10-13T13:06:17.505Z,98477.38
2022-10-13T13:11:32.927Z,98465.88
2022-10-13T13:16:39.370Z,98472.88
2022-10-13T13:21:41.509Z,98468.63
2022-10-13T13:26:46.038Z,98459.66
2022-10-13T13:31:47.845Z,98461.41
2022-10-13T13:36:50.326Z,98460.75
2022-10-13T13:41:52.122Z,98462.84
2022-10-13T13:46:53.929Z,98460.94
2022-10-13T13:51:55.783Z,98457.00
2022-10-13T13:56:58.878Z,98457.59
2022-10-13T14:02:02.670Z,98463.13
2022-10-13T14:07:07.892Z,98459.91
2022-10-13T14:12:09.670Z,98453.34
2022-10-13T14:17:11.468Z,98441.03
2022-10-13T14:22:13.300Z,98438.81
2022-10-13T14:27:15.445Z,98426.47
2022-10-13T14:32:17.398Z,98427.53
2022-10-13T14:37:23.034Z,98423.78
2022-10-13T14:42:26.917Z,98425.03
2022-10-13T14:47:28.754Z,98424.78
2022-10-13T14:52:30.668Z,98420.25
2022-10-13T14:57:32.444Z,98421.97
2022-10-13T15:02:34.421Z,98416.91
2022-10-13T15:07:40.965Z,98412.59
2022-10-13T15:12:43.764Z,98415.03
2022-10-13T15:17:45.591Z,98409.56
2022-10-13T15:22:48.045Z,98404.78
2022-10-13T15:27:50.269Z,98402.72
2022-10-13T15:32:52.716Z,98401.88
2022-10-13T15:37:54.577Z,98400.34
2022-10-13T15:42:56.363Z,98396.91
2022-10-13T15:47:58.286Z,98391.03
2022-10-13T15:53:00.283Z,98391.50
2022-10-13T15:58:02.104Z,98406.94
2022-10-13T16:03:05.064Z,98397.91
2022-10-13T16:08:06.877Z,98398.53
2022-10-13T16:13:12.486Z,98393.13
2022-10-13T16:18:14.292Z,98399.91
2022-10-13T16:23:16.079Z,98396.16
2022-10-13T16:28:18.259Z,98401.69
2022-10-13T16:33:20.728Z,98386.81
2022-10-13T16:38:22.618Z,98389.59
2022-10-13T16:43:24.508Z,98398.25
2022-10-13T16:48:30.426Z,98393.16
2022-10-13T16:53:32.671Z,98410.03
2022-10-13T16:58:35.649Z,98411.66
2022-10-13T17:03:39.906Z,98405.78
2022-10-13T17:08:44.636Z,98408.94
2022-10-13T17:13:47.474Z,98419.91
2022-10-13T17:18:49.623Z,98421.88
2022-10-13T17:23:51.609Z,98427.78
2022-10-13T17:28:54.057Z,98428.16
2022-10-13T17:33:56.172Z,98430.91
2022-10-13T17:39:03.329Z,98434.03
2022-10-13T17:44:05.247Z,98440.31
2022-10-13T17:49:09.837Z,98436.81
2022-10-13T17:54:16.108Z,98429.34
2022-10-13T17:59:18.732Z,98449.31
2022-10-13T18:04:22.370Z,98439.53
2022-10-13T18:09:24.798Z,98439.91
2022-10-13T18:14:27.117Z,98442.25
2022-10-13T18:19:28.937Z,98438.31
2022-10-13T18:24:30.838Z,98432.44
2022-10-13T18:29:32.646Z,98434.41
2022-10-13T18:34:34.727Z,98442.97
2022-10-13T18:39:36.513Z,98434.72
2022-10-13T18:44:38.341Z,98433.94
2022-10-13T18:49:40.192Z,98437.06
2022-10-13T18:54:42.058Z,98431.97
2022-10-13T18:59:43.859Z,98422.97
2022-10-13T19:04:45.725Z,98417.03
2022-10-13T19:09:47.493Z,98419.41
2022-10-13T19:14:49.301Z,98406.09
2022-10-13T19:19:51.113Z,98407.75
2022-10-13T19:24:52.930Z,98409.97
2022-10-13T19:29:54.974Z,98389.66
2022-10-13T19:34:57.180Z,98406.06
2022-10-13T19:39:58.993Z,98404.47
2022-10-13T19:45:04.967Z,98385.72
2022-10-13T19:50:07.289Z,98392.72
2022-10-13T19:55:09.620Z,98395.84
2022-10-13T20:00:12.265Z,98400.94
2022-10-13T20:05:18.248Z,98399.03
2022-10-13T20:10:22.006Z,98394.00
2022-10-13T20:15:23.848Z,98400.25
2022-10-13T20:20:29.143Z,98408.84
2022-10-13T20:25:36.974Z,98400.63
2022-10-13T20:30:40.154Z,98406.88
2022-10-13T20:35:42.071Z,98409.63
2022-10-13T20:40:43.964Z,98410.41
2022-10-13T20:45:46.932Z,98406.47
2022-10-13T20:50:48.718Z,98415.81
2022-10-13T20:56:00.860Z,98406.41
2022-10-13T21:01:04.166Z,98403.66
2022-10-13T21:06:11.261Z,98412.22
2022-10-13T21:11:15.129Z,98409.13
2022-10-13T21:16:23.508Z,98398.22
2022-10-13T21:21:30.384Z,98392.00
2022-10-13T21:26:35.260Z,98389.22
2022-10-13T21:31:37.415Z,98395.09
2022-10-13T21:36:44.349Z,98388.03
2022-10-13T21:41:47.829Z,98391.94
2022-10-13T21:46:49.965Z,98387.97
2022-10-13T21:51:51.968Z,98383.25
2022-10-13T21:56:53.758Z,98386.38
2022-10-13T22:01:55.571Z,98399.63
2022-10-13T22:06:57.393Z,98402.66
2022-10-13T22:11:59.899Z,98388.16
2022-10-13T22:17:01.725Z,98387.78
2022-10-13T22:22:03.647Z,98375.69
2022-10-13T22:27:05.430Z,98379.22
2022-10-13T22:32:07.334Z,98366.78
2022-10-13T22:37:09.330Z,98361.31
2022-10-13T22:42:11.132Z,98355.47
2022-10-13T22:47:12.989Z,98358.97
2022-10-13T22:52:14.769Z,98355.00
2022-10-13T22:57:17.210Z,98356.19
2022-10-13T23:02:18.993Z,98368.19
2022-10-13T23:07:21.039Z,98363.34
2022-10-13T23:12:23.013Z,98357.56
2022-10-13T23:17:24.924Z,98360.34
2022-10-13T23:22:27.186Z,98356.44
2022-10-13T23:27:31.229Z,98359.56
2022-10-13T23:32:33.118Z,98354.06
2022-10-13T23:37:35.143Z,98359.09
2022-10-13T23:42:37.002Z,98358.25
2022-10-13T23:47:38.821Z,98353.94
2022-10-13T23:52:40.648Z,98340.69
2022-10-13T23:57:42.456Z,98347.66
